GCXO/TFN METAR and TAF weather

Enter ICAO airport designator
Station Type Date Time Source
GCXO METAR 2021/07/28 20:30 UTC NOAA

GCXO 282030Z 31010KT 9999 2000NW BCFG FEW001 BKN004 18/17 Q1017 TEMPO BKN010


Station Type Date Time Source
GCXO Decoded METAR 2021/07/28 20:30 UTC NOAA

Tenerife / Los Rodeos, Spain (GCXO) 28-28N 016-19W 617M
Jul 28, 2021 - 04:30 PM EDT / 2021.07.28 2030 UTC
Wind: from the NW (310 degrees) at 12 MPH (10 KT):0
Visibility: greater than 7 mile(s):0
Sky conditions: mostly cloudy
Weather: patches of fog
Temperature: 64 F (18 C)
Dew Point: 62 F (17 C)
Relative Humidity: 93%
Pressure (altimeter): 30.03 in. Hg (1017 hPa)
ob: GCXO 282030Z 31010KT 9999 2000NW BCFG FEW001 BKN004 18/17 Q1017 TEMPO BKN010
cycle: 20

Station Type Date Time Source
GCXO TAF 2021/07/28 21:27 UTC NOAA

TAF GCXO 282000Z 2821/2921 33015KT 9999 BKN010 TX21/2914Z TN16/2906Z
TEMPO 2821/2911 3000 DZ BCFG BKN004 PROB30
TEMPO 2821/2911 0800 FG BKN002

Example: see airport list